Terminal Aerodrome Forecast
Issued by NWS

Current Version | Previous Version | Text Only | Print | Product List | Glossary On
Versions: 1 2 3 4 5 6 7 8 9 10 11 12 13 14 15 16 17 18 19 20
149
FTUS43 KGRB 301133
TAFATW
TAF
KATW 301133Z 3012/0112 04006KT P6SM SCT120 BKN300
     FM301600 05010G18KT P6SM SCT100 BKN250
     FM302100 06015G25KT P6SM SCT040 BKN070
     FM010200 04012KT P6SM -RA BKN040 WS010/06030KT
     FM011000 01010KT 6SM -RA BKN025 WS010/06030KT=

USA.gov is the U.S. government's official web portal to all federal, state and local government web resources and services.